sensor_id;sensor_type;location;lat;lon;timestamp;P1;durP1;ratioP1;P2;durP2;ratioP2
20314;SDS011;10315;50.958;13.080;2023-02-03T00:03:15;9.30;;;2.90;;
20314;SDS011;10315;50.958;13.080;2023-02-03T00:13:17;5.87;;;2.57;;
20314;SDS011;10315;50.958;13.080;2023-02-03T00:23:20;3.27;;;2.43;;
20314;SDS011;10315;50.958;13.080;2023-02-03T00:33:21;14.27;;;3.20;;
20314;SDS011;10315;50.958;13.080;2023-02-03T00:43:24;6.90;;;3.57;;
20314;SDS011;10315;50.958;13.080;2023-02-03T00:53:26;9.77;;;3.87;;
20314;SDS011;10315;50.958;13.080;2023-02-03T01:03:30;10.03;;;2.83;;
20314;SDS011;10315;50.958;13.080;2023-02-03T01:13:31;9.73;;;3.60;;
20314;SDS011;10315;50.958;13.080;2023-02-03T01:23:34;3.33;;;2.10;;
20314;SDS011;10315;50.958;13.080;2023-02-03T01:33:39;3.63;;;1.63;;
20314;SDS011;10315;50.958;13.080;2023-02-03T01:43:46;4.73;;;2.23;;
20314;SDS011;10315;50.958;13.080;2023-02-03T01:53:49;5.63;;;2.50;;
20314;SDS011;10315;50.958;13.080;2023-02-03T02:03:54;5.57;;;2.77;;
20314;SDS011;10315;50.958;13.080;2023-02-03T02:14:00;9.10;;;3.77;;
20314;SDS011;10315;50.958;13.080;2023-02-03T02:24:10;6.10;;;2.97;;
20314;SDS011;10315;50.958;13.080;2023-02-03T02:34:48;10.90;;;5.80;;
20314;SDS011;10315;50.958;13.080;2023-02-03T02:45:01;8.97;;;4.33;;
20314;SDS011;10315;50.958;13.080;2023-02-03T02:55:12;10.73;;;4.63;;
20314;SDS011;10315;50.958;13.080;2023-02-03T03:05:17;8.83;;;3.73;;
20314;SDS011;10315;50.958;13.080;2023-02-03T03:15:21;5.80;;;3.17;;
20314;SDS011;10315;50.958;13.080;2023-02-03T03:25:28;8.47;;;4.13;;
20314;SDS011;10315;50.958;13.080;2023-02-03T03:35:44;10.87;;;3.53;;
20314;SDS011;10315;50.958;13.080;2023-02-03T03:45:57;5.63;;;2.23;;
20314;SDS011;10315;50.958;13.080;2023-02-03T03:56:04;7.40;;;3.77;;
20314;SDS011;10315;50.958;13.080;2023-02-03T04:06:09;12.93;;;6.60;;
20314;SDS011;10315;50.958;13.080;2023-02-03T04:16:13;15.77;;;7.13;;
20314;SDS011;10315;50.958;13.080;2023-02-03T04:26:15;17.90;;;7.20;;
20314;SDS011;10315;50.958;13.080;2023-02-03T04:36:18;8.87;;;4.37;;
20314;SDS011;10315;50.958;13.080;2023-02-03T04:46:19;11.80;;;6.47;;
20314;SDS011;10315;50.958;13.080;2023-02-03T04:56:22;14.07;;;6.27;;
20314;SDS011;10315;50.958;13.080;2023-02-03T05:06:27;13.23;;;5.90;;
20314;SDS011;10315;50.958;13.080;2023-02-03T05:16:32;10.83;;;5.10;;
20314;SDS011;10315;50.958;13.080;2023-02-03T05:26:34;13.07;;;5.90;;
20314;SDS011;10315;50.958;13.080;2023-02-03T05:36:37;17.33;;;7.83;;
20314;SDS011;10315;50.958;13.080;2023-02-03T05:46:38;16.43;;;7.47;;
20314;SDS011;10315;50.958;13.080;2023-02-03T05:56:41;14.47;;;6.77;;
20314;SDS011;10315;50.958;13.080;2023-02-03T06:06:43;17.20;;;8.13;;
20314;SDS011;10315;50.958;13.080;2023-02-03T06:16:48;12.70;;;6.47;;
20314;SDS011;10315;50.958;13.080;2023-02-03T06:26:49;13.43;;;6.23;;
20314;SDS011;10315;50.958;13.080;2023-02-03T06:36:52;14.67;;;5.93;;
20314;SDS011;10315;50.958;13.080;2023-02-03T06:46:54;10.20;;;4.23;;
20314;SDS011;10315;50.958;13.080;2023-02-03T06:56:59;4.37;;;2.97;;
20314;SDS011;10315;50.958;13.080;2023-02-03T07:07:00;7.50;;;3.80;;
20314;SDS011;10315;50.958;13.080;2023-02-03T07:17:03;7.07;;;3.10;;
20314;SDS011;10315;50.958;13.080;2023-02-03T07:27:05;4.90;;;2.10;;
20314;SDS011;10315;50.958;13.080;2023-02-03T07:37:08;4.93;;;2.97;;
20314;SDS011;10315;50.958;13.080;2023-02-03T07:47:09;3.93;;;2.80;;
20314;SDS011;10315;50.958;13.080;2023-02-03T07:57:12;5.03;;;2.73;;
20314;SDS011;10315;50.958;13.080;2023-02-03T08:07:14;4.43;;;2.33;;
20314;SDS011;10315;50.958;13.080;2023-02-03T08:17:17;2.40;;;1.60;;
20314;SDS011;10315;50.958;13.080;2023-02-03T08:27:19;2.20;;;1.93;;
20314;SDS011;10315;50.958;13.080;2023-02-03T08:37:23;3.87;;;2.53;;
20314;SDS011;10315;50.958;13.080;2023-02-03T08:47:25;5.80;;;3.27;;
20314;SDS011;10315;50.958;13.080;2023-02-03T08:57:31;6.37;;;3.00;;
20314;SDS011;10315;50.958;13.080;2023-02-03T09:07:33;6.47;;;3.93;;
20314;SDS011;10315;50.958;13.080;2023-02-03T09:17:36;4.57;;;2.70;;
20314;SDS011;10315;50.958;13.080;2023-02-03T09:27:38;5.07;;;3.23;;
20314;SDS011;10315;50.958;13.080;2023-02-03T09:37:41;2.93;;;2.13;;
20314;SDS011;10315;50.958;13.080;2023-02-03T09:47:42;4.67;;;2.47;;
20314;SDS011;10315;50.958;13.080;2023-02-03T09:57:46;4.70;;;2.57;;
20314;SDS011;10315;50.958;13.080;2023-02-03T10:07:55;5.67;;;3.27;;
20314;SDS011;10315;50.958;13.080;2023-02-03T10:18:04;5.23;;;1.90;;
20314;SDS011;10315;50.958;13.080;2023-02-03T10:28:11;2.77;;;1.73;;
20314;SDS011;10315;50.958;13.080;2023-02-03T10:38:20;2.00;;;1.70;;
20314;SDS011;10315;50.958;13.080;2023-02-03T10:48:35;2.13;;;1.67;;
20314;SDS011;10315;50.958;13.080;2023-02-03T10:58:38;5.70;;;2.40;;
20314;SDS011;10315;50.958;13.080;2023-02-03T11:08:48;5.40;;;2.37;;
20314;SDS011;10315;50.958;13.080;2023-02-03T11:18:52;7.43;;;3.23;;
20314;SDS011;10315;50.958;13.080;2023-02-03T11:28:56;2.17;;;1.73;;
20314;SDS011;10315;50.958;13.080;2023-02-03T11:39:08;10.57;;;3.73;;
20314;SDS011;10315;50.958;13.080;2023-02-03T11:49:15;5.27;;;2.60;;
20314;SDS011;10315;50.958;13.080;2023-02-03T11:59:45;7.90;;;3.03;;
20314;SDS011;10315;50.958;13.080;2023-02-03T12:10:00;5.57;;;2.87;;
20314;SDS011;10315;50.958;13.080;2023-02-03T12:20:19;3.93;;;2.13;;
20314;SDS011;10315;50.958;13.080;2023-02-03T12:30:31;4.07;;;2.20;;
20314;SDS011;10315;50.958;13.080;2023-02-03T12:40:41;4.73;;;1.80;;
20314;SDS011;10315;50.958;13.080;2023-02-03T12:50:49;4.27;;;1.60;;
20314;SDS011;10315;50.958;13.080;2023-02-03T13:00:58;1.80;;;1.30;;
20314;SDS011;10315;50.958;13.080;2023-02-03T13:11:12;1.33;;;1.10;;
20314;SDS011;10315;50.958;13.080;2023-02-03T13:21:21;1.93;;;1.30;;
20314;SDS011;10315;50.958;13.080;2023-02-03T13:31:29;4.73;;;2.20;;
20314;SDS011;10315;50.958;13.080;2023-02-03T13:41:41;3.30;;;1.87;;
20314;SDS011;10315;50.958;13.080;2023-02-03T13:51:49;5.40;;;1.70;;
20314;SDS011;10315;50.958;13.080;2023-02-03T14:01:52;5.13;;;1.50;;
20314;SDS011;10315;50.958;13.080;2023-02-03T14:12:32;3.60;;;1.80;;
20314;SDS011;10315;50.958;13.080;2023-02-03T14:22:36;6.50;;;1.43;;
20314;SDS011;10315;50.958;13.080;2023-02-03T14:32:49;5.63;;;1.63;;
20314;SDS011;10315;50.958;13.080;2023-02-03T14:42:56;6.20;;;2.17;;
20314;SDS011;10315;50.958;13.080;2023-02-03T14:53:19;8.43;;;1.53;;
20314;SDS011;10315;50.958;13.080;2023-02-03T15:03:31;7.37;;;1.53;;
20314;SDS011;10315;50.958;13.080;2023-02-03T15:13:34;10.00;;;2.40;;
20314;SDS011;10315;50.958;13.080;2023-02-03T15:23:37;18.03;;;2.00;;
20314;SDS011;10315;50.958;13.080;2023-02-03T15:33:42;9.03;;;2.60;;
20314;SDS011;10315;50.958;13.080;2023-02-03T15:43:46;9.23;;;2.17;;
20314;SDS011;10315;50.958;13.080;2023-02-03T15:53:52;17.37;;;2.73;;
20314;SDS011;10315;50.958;13.080;2023-02-03T16:03:58;19.63;;;2.90;;
20314;SDS011;10315;50.958;13.080;2023-02-03T16:14:01;9.87;;;2.43;;
20314;SDS011;10315;50.958;13.080;2023-02-03T16:34:32;12.50;;;2.07;;
20314;SDS011;10315;50.958;13.080;2023-02-03T16:44:53;10.87;;;2.13;;
20314;SDS011;10315;50.958;13.080;2023-02-03T16:55:14;6.77;;;1.80;;
20314;SDS011;10315;50.958;13.080;2023-02-03T17:05:17;13.50;;;2.73;;
20314;SDS011;10315;50.958;13.080;2023-02-03T17:15:19;7.03;;;1.80;;
20314;SDS011;10315;50.958;13.080;2023-02-03T17:25:22;12.87;;;1.73;;
20314;SDS011;10315;50.958;13.080;2023-02-03T17:35:23;8.10;;;2.23;;
20314;SDS011;10315;50.958;13.080;2023-02-03T17:45:26;7.73;;;1.40;;
20314;SDS011;10315;50.958;13.080;2023-02-03T17:55:28;6.87;;;2.33;;
20314;SDS011;10315;50.958;13.080;2023-02-03T18:05:31;3.43;;;1.30;;
20314;SDS011;10315;50.958;13.080;2023-02-03T18:15:34;12.90;;;1.63;;
20314;SDS011;10315;50.958;13.080;2023-02-03T18:25:39;13.93;;;2.43;;
20314;SDS011;10315;50.958;13.080;2023-02-03T18:35:40;5.93;;;1.93;;
20314;SDS011;10315;50.958;13.080;2023-02-03T18:45:43;13.93;;;2.73;;
20314;SDS011;10315;50.958;13.080;2023-02-03T18:55:45;12.23;;;2.17;;
20314;SDS011;10315;50.958;13.080;2023-02-03T19:05:48;14.00;;;2.33;;
20314;SDS011;10315;50.958;13.080;2023-02-03T19:15:50;15.30;;;2.40;;
20314;SDS011;10315;50.958;13.080;2023-02-03T19:25:53;17.37;;;2.10;;
20314;SDS011;10315;50.958;13.080;2023-02-03T19:35:54;16.77;;;2.13;;
20314;SDS011;10315;50.958;13.080;2023-02-03T19:45:57;16.83;;;2.50;;
20314;SDS011;10315;50.958;13.080;2023-02-03T19:55:59;3.80;;;1.43;;
20314;SDS011;10315;50.958;13.080;2023-02-03T20:06:02;11.47;;;2.13;;
20314;SDS011;10315;50.958;13.080;2023-02-03T20:16:08;5.40;;;1.73;;
20314;SDS011;10315;50.958;13.080;2023-02-03T20:26:11;16.43;;;2.80;;
20314;SDS011;10315;50.958;13.080;2023-02-03T20:36:12;14.97;;;2.27;;
20314;SDS011;10315;50.958;13.080;2023-02-03T20:46:16;22.63;;;3.00;;
20314;SDS011;10315;50.958;13.080;2023-02-03T20:56:18;22.47;;;2.80;;
20314;SDS011;10315;50.958;13.080;2023-02-03T21:06:22;17.77;;;3.17;;
20314;SDS011;10315;50.958;13.080;2023-02-03T21:16:24;17.43;;;2.80;;
20314;SDS011;10315;50.958;13.080;2023-02-03T21:26:36;17.73;;;2.93;;
20314;SDS011;10315;50.958;13.080;2023-02-03T21:36:37;17.17;;;2.47;;
20314;SDS011;10315;50.958;13.080;2023-02-03T21:46:40;10.70;;;2.80;;
20314;SDS011;10315;50.958;13.080;2023-02-03T21:56:42;9.63;;;2.30;;
20314;SDS011;10315;50.958;13.080;2023-02-03T22:06:49;13.70;;;2.40;;
20314;SDS011;10315;50.958;13.080;2023-02-03T22:16:52;8.77;;;1.80;;
20314;SDS011;10315;50.958;13.080;2023-02-03T22:26:55;5.47;;;2.00;;
20314;SDS011;10315;50.958;13.080;2023-02-03T22:36:59;9.40;;;1.97;;
20314;SDS011;10315;50.958;13.080;2023-02-03T22:47:02;10.37;;;2.37;;
20314;SDS011;10315;50.958;13.080;2023-02-03T22:57:03;8.80;;;2.17;;
20314;SDS011;10315;50.958;13.080;2023-02-03T23:07:06;13.73;;;3.03;;
20314;SDS011;10315;50.958;13.080;2023-02-03T23:17:08;9.27;;;2.23;;
20314;SDS011;10315;50.958;13.080;2023-02-03T23:27:11;14.97;;;2.97;;
20314;SDS011;10315;50.958;13.080;2023-02-03T23:37:12;10.63;;;3.03;;
20314;SDS011;10315;50.958;13.080;2023-02-03T23:47:15;16.97;;;4.17;;
20314;SDS011;10315;50.958;13.080;2023-02-03T23:57:17;7.50;;;2.47;;
